createdAt,value
2018-10-02T00:00:26.901Z,933.92
2018-10-02T00:01:26.923Z,933.87
2018-10-02T00:02:26.931Z,933.89
2018-10-02T00:03:26.949Z,933.86
2018-10-02T00:04:27.075Z,933.88
2018-10-02T00:05:26.980Z,933.84
2018-10-02T00:06:26.992Z,933.84
2018-10-02T00:07:27.023Z,933.91
2018-10-02T00:08:27.038Z,933.88
2018-10-02T00:09:27.304Z,933.95
2018-10-02T00:10:27.064Z,933.90
2018-10-02T00:11:27.067Z,933.91
2018-10-02T00:12:27.081Z,933.90
2018-10-02T00:13:27.107Z,933.91
2018-10-02T00:14:27.218Z,933.91
2018-10-02T00:15:27.142Z,933.93
2018-10-02T00:16:27.145Z,933.95
2018-10-02T00:17:27.172Z,934.00
2018-10-02T00:18:27.187Z,934.01
2018-10-02T00:19:27.305Z,933.99
2018-10-02T00:20:27.199Z,934.03
2018-10-02T00:21:27.229Z,934.00
2018-10-02T00:22:27.228Z,934.04
2018-10-02T00:23:27.252Z,934.02
2018-10-02T00:24:27.375Z,934.07
2018-10-02T00:25:27.290Z,934.08
2018-10-02T00:26:27.304Z,934.11
2018-10-02T00:27:27.321Z,934.14
2018-10-02T00:28:27.335Z,934.22
2018-10-02T00:29:27.441Z,934.23
2018-10-02T00:30:27.353Z,934.24
2018-10-02T00:31:27.390Z,934.28
2018-10-02T00:32:27.586Z,934.24
2018-10-02T00:33:27.405Z,934.23
2018-10-02T00:34:27.512Z,934.29
2018-10-02T00:35:27.436Z,934.23
2018-10-02T00:36:27.442Z,934.23
2018-10-02T00:37:27.457Z,934.21
2018-10-02T00:38:27.469Z,934.21
2018-10-02T00:39:27.754Z,934.17
2018-10-02T00:40:27.502Z,934.19
2018-10-02T00:41:27.532Z,934.19
2018-10-02T00:42:27.543Z,934.18
2018-10-02T00:43:27.549Z,934.19
2018-10-02T00:44:27.666Z,934.17
2018-10-02T00:45:27.585Z,934.13
2018-10-02T00:46:27.600Z,934.11
2018-10-02T00:47:27.621Z,934.12
2018-10-02T00:48:27.623Z,934.12
2018-10-02T00:49:27.745Z,934.09
2018-10-02T00:50:27.663Z,934.10
2018-10-02T00:51:27.670Z,934.12
2018-10-02T00:52:27.679Z,934.10
2018-10-02T00:53:27.697Z,934.05
2018-10-02T00:54:27.813Z,934.09
2018-10-02T00:55:27.741Z,934.11
2018-10-02T00:56:27.756Z,934.09
2018-10-02T00:57:27.777Z,934.12
2018-10-02T00:58:27.787Z,934.14
2018-10-02T00:59:27.805Z,934.13
2018-10-02T01:00:27.903Z,934.11
2018-10-02T01:01:27.832Z,934.14
2018-10-02T01:02:27.845Z,934.15
2018-10-02T01:03:27.849Z,934.10
2018-10-02T01:04:27.867Z,934.09
2018-10-02T01:05:27.978Z,934.12
2018-10-02T01:06:27.894Z,934.09
2018-10-02T01:07:27.913Z,934.14
2018-10-02T01:08:27.934Z,934.15
2018-10-02T01:09:27.948Z,934.19
2018-10-02T01:10:28.052Z,934.19
2018-10-02T01:11:27.980Z,934.18
2018-10-02T01:12:27.981Z,934.18
2018-10-02T01:13:28.004Z,934.18
2018-10-02T01:14:28.008Z,934.22
2018-10-02T01:15:28.135Z,934.20
2018-10-02T01:16:28.033Z,934.18
2018-10-02T01:17:28.057Z,934.16
2018-10-02T01:18:28.133Z,934.15
2018-10-02T01:19:28.092Z,934.14
2018-10-02T01:20:28.247Z,934.16
2018-10-02T01:21:28.118Z,934.14
2018-10-02T01:22:28.130Z,934.13
2018-10-02T01:23:28.157Z,934.19
2018-10-02T01:24:28.157Z,934.16
2018-10-02T01:25:28.290Z,934.18
2018-10-02T01:26:28.188Z,934.17
2018-10-02T01:27:28.203Z,934.16
2018-10-02T01:28:28.215Z,934.17
2018-10-02T01:29:28.238Z,934.16
2018-10-02T01:30:28.491Z,934.14
2018-10-02T01:31:28.260Z,934.17
2018-10-02T01:32:28.267Z,934.15
2018-10-02T01:33:28.302Z,934.13
2018-10-02T01:34:28.316Z,934.16
2018-10-02T01:35:28.421Z,934.16
2018-10-02T01:36:28.335Z,934.19
2018-10-02T01:37:28.345Z,934.20
2018-10-02T01:38:28.356Z,934.22
2018-10-02T01:39:28.378Z,934.21
2018-10-02T01:40:28.500Z,934.22
2018-10-02T01:41:28.415Z,934.19
2018-10-02T01:42:28.428Z,934.16
2018-10-02T01:43:28.449Z,934.16
2018-10-02T01:44:28.462Z,934.14
2018-10-02T01:45:28.562Z,934.20
2018-10-02T01:46:28.482Z,934.21
2018-10-02T01:47:28.506Z,934.24
2018-10-02T01:48:28.510Z,934.29
2018-10-02T01:49:28.535Z,934.31
2018-10-02T01:50:28.645Z,934.31
2018-10-02T01:51:28.549Z,934.38
2018-10-02T01:52:28.567Z,934.39
2018-10-02T01:53:28.579Z,934.36
2018-10-02T01:54:28.607Z,934.32
2018-10-02T01:55:28.724Z,934.36
2018-10-02T01:56:28.633Z,934.33
2018-10-02T01:57:28.648Z,934.36
2018-10-02T01:58:28.665Z,934.34
2018-10-02T01:59:28.667Z,934.36
2018-10-02T02:00:28.780Z,934.40
2018-10-02T02:01:28.710Z,934.40
2018-10-02T02:02:28.720Z,934.42
2018-10-02T02:03:28.726Z,934.41
2018-10-02T02:04:28.746Z,934.44
2018-10-02T02:05:28.753Z,934.43
2018-10-02T02:06:28.932Z,934.48
2018-10-02T02:07:28.783Z,934.42
2018-10-02T02:08:28.800Z,934.41
2018-10-02T02:09:28.820Z,934.39
2018-10-02T02:10:28.827Z,934.33
2018-10-02T02:11:28.945Z,934.27
2018-10-02T02:12:28.862Z,934.23
2018-10-02T02:13:28.887Z,934.20
2018-10-02T02:14:28.888Z,934.24
2018-10-02T02:15:28.899Z,934.26
2018-10-02T02:16:29.027Z,934.27
2018-10-02T02:17:28.936Z,934.31
2018-10-02T02:18:28.942Z,934.24
2018-10-02T02:19:28.967Z,934.24
2018-10-02T02:20:28.973Z,934.25
2018-10-02T02:21:29.087Z,934.24
2018-10-02T02:22:29.006Z,934.26
2018-10-02T02:23:29.014Z,934.22
2018-10-02T02:24:29.039Z,934.23
2018-10-02T02:25:29.043Z,934.26
2018-10-02T02:26:29.159Z,934.26
2018-10-02T02:27:29.082Z,934.23
2018-10-02T02:28:29.092Z,934.27
2018-10-02T02:29:29.103Z,934.19
2018-10-02T02:30:29.113Z,934.24
2018-10-02T02:31:29.230Z,934.23
2018-10-02T02:32:29.153Z,934.19
2018-10-02T02:33:29.169Z,934.23
2018-10-02T02:34:29.184Z,934.20
2018-10-02T02:35:29.200Z,934.19
2018-10-02T02:36:29.310Z,934.23
2018-10-02T02:37:29.228Z,934.19
2018-10-02T02:38:29.230Z,934.18
2018-10-02T02:39:29.241Z,934.15
2018-10-02T02:40:29.257Z,934.15
2018-10-02T02:41:29.382Z,934.13
2018-10-02T02:42:29.304Z,934.10
2018-10-02T02:43:29.303Z,934.06
2018-10-02T02:44:29.328Z,934.04
2018-10-02T02:45:29.338Z,934.00
2018-10-02T02:46:29.507Z,934.00
2018-10-02T02:47:29.359Z,933.98
2018-10-02T02:48:29.371Z,933.93
2018-10-02T02:49:29.398Z,933.94
2018-10-02T02:50:29.407Z,933.92
2018-10-02T02:51:29.530Z,933.89
2018-10-02T02:52:29.479Z,933.89
2018-10-02T02:53:29.438Z,933.87
2018-10-02T02:54:29.473Z,933.87
2018-10-02T02:55:29.475Z,933.82
2018-10-02T02:56:29.599Z,933.79
2018-10-02T02:57:29.507Z,933.77
2018-10-02T02:58:29.531Z,933.73
2018-10-02T02:59:29.536Z,933.73
2018-10-02T03:00:29.550Z,933.69
2018-10-02T03:01:29.658Z,933.67
2018-10-02T03:02:29.591Z,933.65
2018-10-02T03:03:29.599Z,933.63
2018-10-02T03:04:29.610Z,933.60
2018-10-02T03:05:29.624Z,933.62
2018-10-02T03:06:29.788Z,933.63
2018-10-02T03:07:29.649Z,933.59
2018-10-02T03:08:29.659Z,933.59
2018-10-02T03:09:29.686Z,933.55
2018-10-02T03:10:29.686Z,933.54
2018-10-02T03:11:29.697Z,933.50
2018-10-02T03:12:29.829Z,933.55
2018-10-02T03:13:29.738Z,933.59
2018-10-02T03:14:29.753Z,933.56
2018-10-02T03:15:29.773Z,933.67
2018-10-02T03:16:29.771Z,933.60
2018-10-02T03:17:29.898Z,933.55
2018-10-02T03:18:29.799Z,933.50
2018-10-02T03:19:29.826Z,933.49
2018-10-02T03:20:29.837Z,933.47
2018-10-02T03:21:29.843Z,933.46
2018-10-02T03:22:30.099Z,933.46
2018-10-02T03:23:29.874Z,933.51
2018-10-02T03:24:29.891Z,933.48
2018-10-02T03:25:29.916Z,933.46
2018-10-02T03:26:29.909Z,933.42
2018-10-02T03:27:30.021Z,933.35
2018-10-02T03:28:29.934Z,933.29
2018-10-02T03:29:29.964Z,933.25
2018-10-02T03:30:29.980Z,933.18
2018-10-02T03:31:29.985Z,933.11
2018-10-02T03:32:30.111Z,933.16
2018-10-02T03:33:30.025Z,933.15
2018-10-02T03:34:30.057Z,933.15
2018-10-02T03:35:30.055Z,933.17
2018-10-02T03:36:30.065Z,933.12
2018-10-02T03:37:30.179Z,933.13
2018-10-02T03:38:30.094Z,933.14
2018-10-02T03:39:30.143Z,933.11
2018-10-02T03:40:30.139Z,933.10
2018-10-02T03:41:30.139Z,933.16
2018-10-02T03:42:30.252Z,933.17
2018-10-02T03:43:30.148Z,933.15
2018-10-02T03:44:30.160Z,933.12
2018-10-02T03:45:30.187Z,933.07
2018-10-02T03:46:30.191Z,933.06
2018-10-02T03:47:30.323Z,933.04
2018-10-02T03:48:30.232Z,933.01
2018-10-02T03:49:30.236Z,932.95
2018-10-02T03:50:30.247Z,932.95
2018-10-02T03:51:30.262Z,932.92
2018-10-02T03:52:30.383Z,932.89
2018-10-02T03:53:30.307Z,932.91
2018-10-02T03:54:30.308Z,932.94
2018-10-02T03:55:30.317Z,932.92
2018-10-02T03:56:30.345Z,932.94
2018-10-02T03:57:30.457Z,932.93
2018-10-02T03:58:30.364Z,932.95
2018-10-02T03:59:30.385Z,932.96
2018-10-02T04:00:30.385Z,932.96
2018-10-02T04:01:30.408Z,932.96
2018-10-02T04:02:30.526Z,932.95
2018-10-02T04:03:30.559Z,932.93
2018-10-02T04:04:30.442Z,932.92
2018-10-02T04:05:30.464Z,932.86
2018-10-02T04:06:30.473Z,932.83
2018-10-02T04:07:30.736Z,932.82
2018-10-02T04:08:30.502Z,932.79
2018-10-02T04:09:30.517Z,932.72
2018-10-02T04:10:30.547Z,932.72
2018-10-02T04:11:30.558Z,932.70
2018-10-02T04:12:30.654Z,932.72
2018-10-02T04:13:30.584Z,932.73
2018-10-02T04:14:30.594Z,932.77
2018-10-02T04:15:30.612Z,932.78
2018-10-02T04:16:30.628Z,932.78
2018-10-02T04:17:30.876Z,932.78
2018-10-02T04:18:30.655Z,932.74
2018-10-02T04:19:30.652Z,932.74
2018-10-02T04:20:30.701Z,932.67
2018-10-02T04:21:30.680Z,932.71
2018-10-02T04:22:30.708Z,932.67
2018-10-02T04:23:30.822Z,932.71
2018-10-02T04:24:30.719Z,932.69
2018-10-02T04:25:30.738Z,932.73
2018-10-02T04:26:30.762Z,932.77
2018-10-02T04:27:30.758Z,932.78
2018-10-02T04:28:30.990Z,932.79
2018-10-02T04:29:30.803Z,932.75
2018-10-02T04:30:30.822Z,932.76
2018-10-02T04:31:30.821Z,932.81
2018-10-02T04:32:30.834Z,932.83
2018-10-02T04:33:30.949Z,932.83
2018-10-02T04:34:30.862Z,932.84
2018-10-02T04:35:30.886Z,932.87
2018-10-02T04:36:30.883Z,932.86
2018-10-02T04:37:30.897Z,932.88
2018-10-02T04:38:31.013Z,932.86
2018-10-02T04:39:30.981Z,932.85
2018-10-02T04:40:30.937Z,932.79
2018-10-02T04:41:30.992Z,932.74
2018-10-02T04:42:30.974Z,932.78
2018-10-02T04:43:31.084Z,932.77
2018-10-02T04:44:30.999Z,932.78
2018-10-02T04:45:31.022Z,932.77
2018-10-02T04:46:31.024Z,932.81
2018-10-02T04:47:31.055Z,932.81
2018-10-02T04:48:31.158Z,932.80
2018-10-02T04:49:31.080Z,932.81
2018-10-02T04:50:31.093Z,932.82
2018-10-02T04:51:31.101Z,932.81
2018-10-02T04:52:31.119Z,932.81
2018-10-02T04:53:31.236Z,932.77
2018-10-02T04:54:31.136Z,932.78
2018-10-02T04:55:31.153Z,932.73
2018-10-02T04:56:31.165Z,932.70
2018-10-02T04:57:31.183Z,932.71
2018-10-02T04:58:31.298Z,932.72
2018-10-02T04:59:31.221Z,932.71
2018-10-02T05:00:31.221Z,932.70
2018-10-02T05:01:31.246Z,932.65
2018-10-02T05:02:31.254Z,932.61
2018-10-02T05:03:31.426Z,932.60
2018-10-02T05:04:31.291Z,932.55
2018-10-02T05:05:31.289Z,932.60
2018-10-02T05:06:31.349Z,932.56
2018-10-02T05:07:31.318Z,932.60
2018-10-02T05:08:31.620Z,932.57
2018-10-02T05:09:31.358Z,932.56
2018-10-02T05:10:31.374Z,932.54
2018-10-02T05:11:31.376Z,932.55
2018-10-02T05:12:31.398Z,932.54
2018-10-02T05:13:31.500Z,932.56
2018-10-02T05:14:31.430Z,932.57
2018-10-02T05:15:31.448Z,932.54
2018-10-02T05:16:31.457Z,932.53
2018-10-02T05:17:31.465Z,932.56
2018-10-02T05:18:31.584Z,932.54
2018-10-02T05:19:31.487Z,932.54
2018-10-02T05:20:31.565Z,932.52
2018-10-02T05:21:31.516Z,932.49
2018-10-02T05:22:31.530Z,932.49
2018-10-02T05:23:31.656Z,932.48
2018-10-02T05:24:31.567Z,932.44
2018-10-02T05:25:31.565Z,932.46
2018-10-02T05:26:31.584Z,932.44
2018-10-02T05:27:31.622Z,932.46
2018-10-02T05:28:31.726Z,932.45
2018-10-02T05:29:31.673Z,932.49
2018-10-02T05:30:31.639Z,932.48
2018-10-02T05:31:31.664Z,932.45
2018-10-02T05:32:31.664Z,932.52
2018-10-02T05:33:31.798Z,932.52
2018-10-02T05:34:31.703Z,932.56
2018-10-02T05:35:31.787Z,932.60
2018-10-02T05:36:31.731Z,932.61
2018-10-02T05:37:31.742Z,932.62
2018-10-02T05:38:31.844Z,932.58
2018-10-02T05:39:31.773Z,932.64
2018-10-02T05:40:31.776Z,932.62
2018-10-02T05:41:31.800Z,932.59
2018-10-02T05:42:31.846Z,932.56
2018-10-02T05:43:31.912Z,932.60
2018-10-02T05:44:31.834Z,932.57
2018-10-02T05:45:31.843Z,932.58
2018-10-02T05:46:31.876Z,932.57
2018-10-02T05:47:31.871Z,932.63
2018-10-02T05:48:32.000Z,932.62
2018-10-02T05:49:31.914Z,932.62
2018-10-02T05:50:31.969Z,932.61
2018-10-02T05:51:31.926Z,932.58
2018-10-02T05:52:31.946Z,932.57
2018-10-02T05:53:32.210Z,932.53
2018-10-02T05:54:31.966Z,932.52
2018-10-02T05:55:31.979Z,932.54
2018-10-02T05:56:32.008Z,932.55
2018-10-02T05:57:32.025Z,932.59
2018-10-02T05:58:32.205Z,932.62
2018-10-02T05:59:32.050Z,932.64
2018-10-02T06:00:32.059Z,932.63
2018-10-02T06:01:32.061Z,932.64
2018-10-02T06:02:32.089Z,932.67
2018-10-02T06:03:32.200Z,932.64
2018-10-02T06:04:32.119Z,932.62
2018-10-02T06:05:32.119Z,932.63
2018-10-02T06:06:32.144Z,932.66
2018-10-02T06:07:32.153Z,932.68
2018-10-02T06:08:32.322Z,932.71
2018-10-02T06:09:32.187Z,932.76
2018-10-02T06:10:32.199Z,932.75
2018-10-02T06:11:32.201Z,932.78
2018-10-02T06:12:32.216Z,932.76
2018-10-02T06:13:32.339Z,932.75
2018-10-02T06:14:32.251Z,932.73
2018-10-02T06:15:32.261Z,932.76
2018-10-02T06:16:32.277Z,932.74
2018-10-02T06:17:32.293Z,932.78
2018-10-02T06:18:32.499Z,932.79
2018-10-02T06:19:32.309Z,932.79
2018-10-02T06:20:32.338Z,932.77
2018-10-02T06:21:32.337Z,932.79
2018-10-02T06:22:32.368Z,932.80
2018-10-02T06:23:32.632Z,932.81
2018-10-02T06:24:32.438Z,932.81
2018-10-02T06:25:32.385Z,932.85
2018-10-02T06:26:32.401Z,932.82
2018-10-02T06:27:32.431Z,932.81
2018-10-02T06:28:32.536Z,932.84
2018-10-02T06:29:32.451Z,932.83
2018-10-02T06:30:32.462Z,932.84
2018-10-02T06:31:32.473Z,932.84
2018-10-02T06:32:32.531Z,932.89
2018-10-02T06:33:32.594Z,932.89
2018-10-02T06:34:32.527Z,932.88
2018-10-02T06:35:32.542Z,932.85
2018-10-02T06:36:32.550Z,932.84
2018-10-02T06:37:32.550Z,932.83
2018-10-02T06:38:33.085Z,932.82
2018-10-02T06:39:32.599Z,932.81
2018-10-02T06:40:32.601Z,932.84
2018-10-02T06:41:32.605Z,932.87
2018-10-02T06:42:32.633Z,932.87
2018-10-02T06:43:32.694Z,932.94
2018-10-02T06:44:32.835Z,932.93
2018-10-02T06:45:32.674Z,932.93
2018-10-02T06:46:32.674Z,932.93
2018-10-02T06:47:32.690Z,932.92
2018-10-02T06:48:32.728Z,932.93
2018-10-02T06:49:32.732Z,932.93
2018-10-02T06:50:32.867Z,932.91
2018-10-02T06:51:32.920Z,932.94
2018-10-02T06:52:33.025Z,932.98
2018-10-02T06:53:32.769Z,933.02
2018-10-02T06:54:32.784Z,933.06
2018-10-02T06:55:32.901Z,933.05
2018-10-02T06:56:32.833Z,933.06
2018-10-02T06:57:32.825Z,933.08
2018-10-02T06:58:32.839Z,933.07
2018-10-02T06:59:32.864Z,933.08
2018-10-02T07:00:32.987Z,933.03
2018-10-02T07:01:32.889Z,933.08
2018-10-02T07:02:32.994Z,933.07
2018-10-02T07:03:32.906Z,933.10
2018-10-02T07:04:32.918Z,933.05
2018-10-02T07:05:33.038Z,933.13
2018-10-02T07:06:32.997Z,933.11
2018-10-02T07:07:32.968Z,933.08
2018-10-02T07:08:33.021Z,933.11
2018-10-02T07:09:32.985Z,933.10
2018-10-02T07:10:33.156Z,933.13
2018-10-02T07:11:33.010Z,933.12
2018-10-02T07:12:33.059Z,933.09
2018-10-02T07:13:33.034Z,933.08
2018-10-02T07:14:33.077Z,933.06
2018-10-02T07:15:33.176Z,933.06
2018-10-02T07:16:33.088Z,933.04
2018-10-02T07:17:33.187Z,933.06
2018-10-02T07:18:33.101Z,933.07
2018-10-02T07:19:33.117Z,933.13
2018-10-02T07:20:33.279Z,933.14
2018-10-02T07:21:33.158Z,933.18
2018-10-02T07:22:33.172Z,933.18
2018-10-02T07:23:33.180Z,933.23
2018-10-02T07:24:33.194Z,933.22
2018-10-02T07:25:33.388Z,933.24
2018-10-02T07:26:33.281Z,933.17
2018-10-02T07:27:33.344Z,933.21
2018-10-02T07:28:33.252Z,933.17
2018-10-02T07:29:33.261Z,933.13
2018-10-02T07:30:33.429Z,933.14
2018-10-02T07:31:33.281Z,933.10
2018-10-02T07:32:33.317Z,933.10
2018-10-02T07:33:33.304Z,933.08
2018-10-02T07:34:33.325Z,933.05
2018-10-02T07:35:33.435Z,933.04
2018-10-02T07:36:33.418Z,933.04
2018-10-02T07:37:33.369Z,933.05
2018-10-02T07:38:33.413Z,933.04
2018-10-02T07:39:33.384Z,933.04
2018-10-02T07:40:33.512Z,933.02
2018-10-02T07:41:33.452Z,933.05
2018-10-02T07:42:33.442Z,933.09
2018-10-02T07:43:33.458Z,933.09
2018-10-02T07:44:33.581Z,933.07
2018-10-02T07:45:33.567Z,933.13
2018-10-02T07:46:33.491Z,933.15
2018-10-02T07:47:33.526Z,933.12
2018-10-02T07:48:33.580Z,933.16
2018-10-02T07:49:33.519Z,933.20
2018-10-02T07:50:33.789Z,933.15
2018-10-02T07:51:33.548Z,933.12
2018-10-02T07:52:33.566Z,933.09
2018-10-02T07:53:33.609Z,933.10
2018-10-02T07:54:33.598Z,933.09
2018-10-02T07:55:33.667Z,933.12
2018-10-02T07:56:33.829Z,933.10
2018-10-02T07:57:33.631Z,933.12
2018-10-02T07:58:33.641Z,933.12
2018-10-02T07:59:33.679Z,933.13
2018-10-02T08:00:33.671Z,933.12
2018-10-02T08:01:33.696Z,933.13
2018-10-02T08:02:33.897Z,933.16
2018-10-02T08:03:33.709Z,933.14
2018-10-02T08:04:33.728Z,933.19
2018-10-02T08:05:33.770Z,933.21
2018-10-02T08:06:33.749Z,933.25
2018-10-02T08:07:33.913Z,933.27
2018-10-02T08:08:33.821Z,933.23
2018-10-02T08:09:33.791Z,933.24
2018-10-02T08:10:33.804Z,933.24
2018-10-02T08:11:33.876Z,933.24
2018-10-02T08:12:33.943Z,933.24
2018-10-02T08:13:33.938Z,933.19
2018-10-02T08:14:33.916Z,933.22
2018-10-02T08:15:33.881Z,933.21
2018-10-02T08:16:33.898Z,933.23
2018-10-02T08:17:34.088Z,933.24
2018-10-02T08:18:33.914Z,933.28
2018-10-02T08:19:33.940Z,933.29
2018-10-02T08:20:34.010Z,933.33
2018-10-02T08:21:33.956Z,933.36
2018-10-02T08:22:34.063Z,933.37
2018-10-02T08:23:34.039Z,933.35
2018-10-02T08:24:33.992Z,933.39
2018-10-02T08:25:34.007Z,933.41
2018-10-02T08:26:34.046Z,933.39
2018-10-02T08:27:34.142Z,933.42
2018-10-02T08:28:34.062Z,933.43
2018-10-02T08:29:34.178Z,933.44
2018-10-02T08:30:34.086Z,933.45
2018-10-02T08:31:34.104Z,933.38
2018-10-02T08:32:34.282Z,933.36
2018-10-02T08:33:34.126Z,933.33
2018-10-02T08:34:34.140Z,933.37
2018-10-02T08:35:34.226Z,933.39
2018-10-02T08:36:34.280Z,933.40
2018-10-02T08:37:34.432Z,933.38
2018-10-02T08:38:34.254Z,933.38
2018-10-02T08:39:34.197Z,933.37
2018-10-02T08:40:34.210Z,933.38
2018-10-02T08:41:34.224Z,933.34
2018-10-02T08:42:34.347Z,933.34
2018-10-02T08:43:34.361Z,933.32
2018-10-02T08:44:34.281Z,933.37
2018-10-02T08:45:34.275Z,933.37
2018-10-02T08:46:34.295Z,933.34
2018-10-02T08:47:34.478Z,933.33
2018-10-02T08:48:34.359Z,933.35
2018-10-02T08:49:34.332Z,933.33
2018-10-02T08:50:34.423Z,933.26
2018-10-02T08:51:34.357Z,933.29
2018-10-02T08:52:34.480Z,933.31
2018-10-02T08:53:34.398Z,933.30
2018-10-02T08:54:34.402Z,933.31
2018-10-02T08:55:34.415Z,933.28
2018-10-02T08:56:34.424Z,933.30
2018-10-02T08:57:34.552Z,933.32
2018-10-02T08:58:34.466Z,933.31
2018-10-02T08:59:34.477Z,933.30
2018-10-02T09:00:34.584Z,933.27
2018-10-02T09:01:34.521Z,933.24
2018-10-02T09:02:34.607Z,933.21
2018-10-02T09:03:34.525Z,933.22
2018-10-02T09:04:34.544Z,933.21
2018-10-02T09:05:34.561Z,933.22
2018-10-02T09:06:34.598Z,933.18
2018-10-02T09:07:34.821Z,933.17
2018-10-02T09:08:34.600Z,933.17
2018-10-02T09:09:34.608Z,933.19
2018-10-02T09:10:34.617Z,933.19
2018-10-02T09:11:34.633Z,933.23
2018-10-02T09:12:34.701Z,933.22
2018-10-02T09:13:34.770Z,933.19
2018-10-02T09:14:34.683Z,933.22
2018-10-02T09:15:34.715Z,933.19
2018-10-02T09:16:34.813Z,933.18
2018-10-02T09:17:34.712Z,933.19
2018-10-02T09:18:34.910Z,933.18
2018-10-02T09:19:34.741Z,933.18
2018-10-02T09:20:34.797Z,933.18
2018-10-02T09:21:34.817Z,933.18
2018-10-02T09:22:34.787Z,933.18
2018-10-02T09:23:34.949Z,933.20
2018-10-02T09:24:34.881Z,933.19
2018-10-02T09:25:34.834Z,933.20
2018-10-02T09:26:34.834Z,933.17
2018-10-02T09:27:34.972Z,933.17
2018-10-02T09:28:35.072Z,933.17
2018-10-02T09:29:34.879Z,933.18
2018-10-02T09:30:34.908Z,933.18
2018-10-02T09:31:34.918Z,933.20
2018-10-02T09:32:34.918Z,933.22
2018-10-02T09:33:35.055Z,933.20
2018-10-02T09:34:34.949Z,933.25
2018-10-02T09:35:34.966Z,933.25
2018-10-02T09:36:35.030Z,933.26
2018-10-02T09:37:35.003Z,933.27
2018-10-02T09:38:35.111Z,933.27
2018-10-02T09:39:35.041Z,933.31
2018-10-02T09:40:35.045Z,933.32
2018-10-02T09:41:35.048Z,933.33
2018-10-02T09:42:35.165Z,933.33
2018-10-02T09:43:35.273Z,933.38
2018-10-02T09:44:35.087Z,933.40
2018-10-02T09:45:35.111Z,933.46
2018-10-02T09:46:35.117Z,933.47
2018-10-02T09:47:35.139Z,933.49
2018-10-02T09:48:35.298Z,933.52
2018-10-02T09:49:35.172Z,933.52
2018-10-02T09:50:35.206Z,933.52
2018-10-02T09:51:35.200Z,933.55
2018-10-02T09:52:35.203Z,933.54
2018-10-02T09:53:35.491Z,933.53
2018-10-02T09:54:35.299Z,933.56
2018-10-02T09:55:35.260Z,933.55
2018-10-02T09:56:35.313Z,933.54
2018-10-02T09:57:35.279Z,933.55
2018-10-02T09:58:35.408Z,933.53
2018-10-02T09:59:35.319Z,933.54
2018-10-02T10:00:35.353Z,933.63
2018-10-02T10:01:35.333Z,933.67
2018-10-02T10:02:35.376Z,933.69
2018-10-02T10:03:35.473Z,933.76
2018-10-02T10:04:35.391Z,933.79
2018-10-02T10:05:35.401Z,933.84
2018-10-02T10:06:35.408Z,933.86
2018-10-02T10:07:35.435Z,933.92
2018-10-02T10:08:35.548Z,933.99
2018-10-02T10:09:35.468Z,933.97
2018-10-02T10:10:35.522Z,934.02
2018-10-02T10:11:35.496Z,934.02
2018-10-02T10:12:35.500Z,934.04
2018-10-02T10:13:35.618Z,934.11
2018-10-02T10:14:35.542Z,934.16
2018-10-02T10:15:35.553Z,934.17
2018-10-02T10:16:35.602Z,934.24
2018-10-02T10:17:35.579Z,934.30
2018-10-02T10:18:35.697Z,934.34
2018-10-02T10:19:35.621Z,934.35
2018-10-02T10:20:35.635Z,934.43
2018-10-02T10:21:35.655Z,934.47
2018-10-02T10:22:35.662Z,934.45
2018-10-02T10:23:35.672Z,934.52
2018-10-02T10:24:35.797Z,934.55
2018-10-02T10:25:35.700Z,934.57
2018-10-02T10:26:35.755Z,934.54
2018-10-02T10:27:35.748Z,934.59
2018-10-02T10:28:35.814Z,934.64
2018-10-02T10:29:35.928Z,934.70
2018-10-02T10:30:35.786Z,934.75
2018-10-02T10:31:35.803Z,934.72
2018-10-02T10:32:35.821Z,934.76
2018-10-02T10:33:35.867Z,934.77
2018-10-02T10:34:36.136Z,934.80
2018-10-02T10:35:35.877Z,934.77
2018-10-02T10:36:35.891Z,934.80
2018-10-02T10:37:35.913Z,934.87
2018-10-02T10:38:35.929Z,934.87
2018-10-02T10:39:36.039Z,934.90
2018-10-02T10:40:35.965Z,934.92
2018-10-02T10:41:35.979Z,934.86
2018-10-02T10:42:35.978Z,934.88
2018-10-02T10:43:35.992Z,934.90
2018-10-02T10:44:36.115Z,934.97
2018-10-02T10:45:36.036Z,934.96
2018-10-02T10:46:36.089Z,934.98
2018-10-02T10:47:36.107Z,935.06
2018-10-02T10:48:36.091Z,935.09
2018-10-02T10:49:36.256Z,935.08
2018-10-02T10:50:36.119Z,935.10
2018-10-02T10:51:36.129Z,935.09
2018-10-02T10:52:36.220Z,935.08
2018-10-02T10:53:36.160Z,935.10
2018-10-02T10:54:36.280Z,935.14
2018-10-02T10:55:36.197Z,935.09
2018-10-02T10:56:36.340Z,935.07
2018-10-02T10:57:36.231Z,935.06
2018-10-02T10:58:36.340Z,935.07
2018-10-02T10:59:36.368Z,935.09
2018-10-02T11:00:36.297Z,935.02
2018-10-02T11:01:36.311Z,935.08
2018-10-02T11:02:36.331Z,935.05
2018-10-02T11:03:36.332Z,935.13
2018-10-02T11:04:36.708Z,935.11
2018-10-02T11:05:36.378Z,935.15
2018-10-02T11:06:36.387Z,935.13
2018-10-02T11:07:36.414Z,935.14
2018-10-02T11:08:36.423Z,935.10
2018-10-02T11:09:36.513Z,935.13
2018-10-02T11:10:36.558Z,935.11
2018-10-02T11:11:36.484Z,935.13
2018-10-02T11:12:36.503Z,935.10
2018-10-02T11:13:36.534Z,935.12
2018-10-02T11:14:36.543Z,935.13
2018-10-02T11:15:36.647Z,935.17
2018-10-02T11:16:36.580Z,935.20
2018-10-02T11:17:36.586Z,935.18
2018-10-02T11:18:36.610Z,935.12
2018-10-02T11:19:36.680Z,935.15
2018-10-02T11:20:36.740Z,935.12
2018-10-02T11:21:36.668Z,935.13
2018-10-02T11:22:36.691Z,935.15
2018-10-02T11:23:36.706Z,935.16
2018-10-02T11:24:36.723Z,935.19
2018-10-02T11:25:36.879Z,935.16
2018-10-02T11:26:36.766Z,935.13
2018-10-02T11:27:36.768Z,935.18
2018-10-02T11:28:36.783Z,935.15
2018-10-02T11:29:36.859Z,935.15
2018-10-02T11:30:36.964Z,935.14
2018-10-02T11:31:36.896Z,935.18
2018-10-02T11:32:36.869Z,935.17
2018-10-02T11:33:36.877Z,935.21
2018-10-02T11:34:36.894Z,935.25
2018-10-02T11:35:37.081Z,935.26
2018-10-02T11:36:36.939Z,935.24
2018-10-02T11:37:36.970Z,935.22
2018-10-02T11:38:36.981Z,935.26
2018-10-02T11:39:36.998Z,935.21
2018-10-02T11:40:37.107Z,935.25
2018-10-02T11:41:37.033Z,935.24
2018-10-02T11:42:37.057Z,935.18
2018-10-02T11:43:37.147Z,935.15
2018-10-02T11:44:37.131Z,935.11
2018-10-02T11:45:37.208Z,935.11
2018-10-02T11:46:37.133Z,935.08
2018-10-02T11:47:37.154Z,935.03
2018-10-02T11:48:37.173Z,935.00
2018-10-02T11:49:37.228Z,935.04
2018-10-02T11:50:37.305Z,934.96
2018-10-02T11:51:37.224Z,934.96
2018-10-02T11:52:37.253Z,934.98
2018-10-02T11:53:37.265Z,935.02
2018-10-02T11:54:37.285Z,935.02
2018-10-02T11:55:37.469Z,934.97
2018-10-02T11:56:37.332Z,934.99
2018-10-02T11:57:37.377Z,935.00
2018-10-02T11:58:37.371Z,934.98
2018-10-02T11:59:37.385Z,935.03
2018-10-02T12:00:37.593Z,935.02
2018-10-02T12:01:37.420Z,935.01
2018-10-02T12:02:37.463Z,935.04
2018-10-02T12:03:37.479Z,935.00
2018-10-02T12:04:37.494Z,934.95
2018-10-02T12:05:37.600Z,934.93
2018-10-02T12:06:37.561Z,934.90
2018-10-02T12:07:37.552Z,934.93
2018-10-02T12:08:37.577Z,934.88
2018-10-02T12:09:37.596Z,934.83
2018-10-02T12:10:37.703Z,934.83
2018-10-02T12:11:37.710Z,934.78
2018-10-02T12:12:37.645Z,934.80
2018-10-02T12:13:37.868Z,934.75
2018-10-02T12:14:37.738Z,934.75
2018-10-02T12:15:37.806Z,934.79
2018-10-02T12:16:37.734Z,934.78
2018-10-02T12:17:37.755Z,934.77
2018-10-02T12:18:37.766Z,934.72
2018-10-02T12:19:37.869Z,934.70
2018-10-02T12:20:37.962Z,934.71
2018-10-02T12:21:37.819Z,934.70
2018-10-02T12:22:37.862Z,934.67
2018-10-02T12:23:37.933Z,934.73
2018-10-02T12:24:37.881Z,934.69
2018-10-02T12:25:38.010Z,934.67
2018-10-02T12:26:37.932Z,934.64
2018-10-02T12:27:37.957Z,934.65
2018-10-02T12:28:37.973Z,934.64